Strona główna
METAR-TAF:

METAR-TAF

Lotnisko :

Port lotniczy Ryga

Ryga, Łotwa

Szerokość geograficzna: 56-55N, Długość geograficzna: 023-58E, wysokość: 10 m

Aktualna obserwacja pogody

Raport powstał 28 minut temu, godzina 08:20 UTC
Wiatr 12 kt od północ
Temperatura 13°C
Wilgotność 77%
Ciśnienie 1024 hPa
Widzialność 10 km lub więcej
Mało chmury na wysokości 1500 ft

METAR: EVRA 280820Z 35012KT 9999 FEW015 13/09 Q1024 NOSIG

czas: 11:48 (08:48 UTC)

Prognoza

Raport powstał 47 minut temu, godzina 08:01 UTC
Prognoza ważna od 28 godzina 09 UTC do 29 godzina 09 UTC
Wiatr 9 kt od północno-północny zachód
Widzialność 10 km lub więcej
Rozproszone chmury na wysokości 3000 ft
Przejściowo
od 28 godzina 10 UTC do 28 godzina 15 UTC
Wiatr 12 kt od północ w porywach dochodzący do 26 kt

TAF: EVRA 280801Z 2809/2909 34009KT 9999 SCT030 TEMPO 2810/2815 35012G26KT

Obserwacja i prognoza pogody dla ponad 4000 lotnisk (raport METAR i TAF).

Dostępne stacje oznaczono żółtymi i czerwonymi punktami na mapie.

Najedź kursorem aby zobaczyć nazwę stacji.

Kliknij aby zobaczyć obserwacje i prognozy pogody.

Aby zmienić mapę: kliknij na zielony przycisk z czarnym krzyżykiem, aby powiększyć; na zielony przycisk z myślnikiem, aby pomniejszyć; na zielone strzałki, aby przejść do map sąsiednich.


METAR-TAF: